Time;durP1;ratioP1;P1;durP2;ratioP2;P2;SDS_P1;SDS_P2;PMS_P1;PMS_P2;Temp;Humidity;BMP_temperature;BMP_pressure;BME280_temperature;BME280_humidity;BME280_pressure;Samples;Min_cycle;Max_cycle;Signal;HPM_P1;HPM_P2
2022/03/23 00:01:20;;;;;;;42.00;33.00;;;;;;;;;;5004454;28;21031;-68
2022/03/23 00:03:46;;;;;;;41.17;33.10;;;;;;;;;;4999402;28;20181;-68
2022/03/23 00:06:13;;;;;;;41.97;32.70;;;;;;;;;;5004540;28;20779;-68
2022/03/23 00:08:38;;;;;;;39.97;32.67;;;;;;;;;;5002598;28;20436;-68
2022/03/23 00:11:13;;;;;;;42.83;32.87;;;;;;;;;;5001281;28;20451;-68
2022/03/23 00:13:38;;;;;;;45.03;34.30;;;;;;;;;;5000899;28;20234;-68
2022/03/23 00:16:06;;;;;;;41.70;34.43;;;;;;;;;;4994402;28;20444;-69
2022/03/23 00:21:23;;;;;;;39.60;32.73;;;;;;;;;;4988038;28;20451;-67
2022/03/23 00:23:54;;;;;;;41.50;33.50;;;;;;;;;;5002019;28;21080;-68
2022/03/23 00:26:19;;;;;;;47.93;36.07;;;;;;;;;;4994377;28;20235;-67
2022/03/23 00:28:45;;;;;;;44.47;34.83;;;;;;;;;;5001246;28;20987;-69
2022/03/23 00:31:24;;;;;;;42.53;33.20;;;;;;;;;;4997129;28;20815;-68
2022/03/23 00:33:54;;;;;;;42.33;34.03;;;;;;;;;;4986971;28;20200;-69
2022/03/23 00:36:28;;;;;;;43.90;35.23;;;;;;;;;;5002548;28;20493;-67
2022/03/23 00:38:54;;;;;;;39.83;32.80;;;;;;;;;;5002049;28;20459;-67
2022/03/23 00:41:30;;;;;;;47.43;32.90;;;;;;;;;;4997786;28;20455;-68
2022/03/23 00:43:58;;;;;;;38.43;32.53;;;;;;;;;;5001971;28;20180;-67
2022/03/23 00:46:24;;;;;;;42.80;33.17;;;;;;;;;;4997091;28;20439;-67
2022/03/23 00:48:50;;;;;;;43.10;33.80;;;;;;;;;;4997821;28;20462;-68
2022/03/23 00:51:15;;;;;;;40.67;33.10;;;;;;;;;;5012228;23;20578;-70
2022/03/23 00:53:40;;;;;;;41.07;32.10;;;;;;;;;;4997086;28;20471;-70
2022/03/23 00:56:06;;;;;;;41.50;34.13;;;;;;;;;;5000560;28;20189;-71
2022/03/23 00:58:31;;;;;;;43.13;33.90;;;;;;;;;;5002216;28;20814;-70
2022/03/23 01:01:00;;;;;;;42.33;33.57;;;;;;;;;;4999324;28;20205;-70
2022/03/23 01:03:25;;;;;;;47.10;35.90;;;;;;;;;;5002036;28;20189;-69
2022/03/23 01:05:51;;;;;;;39.60;32.50;;;;;;;;;;5015126;28;20485;-70
2022/03/23 01:08:16;;;;;;;43.20;34.83;;;;;;;;;;4998428;28;20177;-70
2022/03/23 01:10:42;;;;;;;40.90;33.90;;;;;;;;;;5001597;28;20487;-70
2022/03/23 01:13:07;;;;;;;43.10;33.77;;;;;;;;;;5001628;28;20184;-69
2022/03/23 01:15:35;;;;;;;42.80;33.73;;;;;;;;;;5001401;28;20703;-71
2022/03/23 01:18:01;;;;;;;37.80;31.70;;;;;;;;;;4999292;28;20293;-69
2022/03/23 01:20:31;;;;;;;41.53;34.03;;;;;;;;;;4997302;28;20471;-69
2022/03/23 01:25:55;;;;;;;40.20;31.90;;;;;;;;;;4992021;28;20440;-70
2022/03/23 01:28:31;;;;;;;40.97;31.87;;;;;;;;;;5001141;28;20436;-70
2022/03/23 01:31:02;;;;;;;37.73;30.37;;;;;;;;;;4995625;28;20193;-70
2022/03/23 01:33:28;;;;;;;37.23;31.30;;;;;;;;;;4993732;28;22426;-69
2022/03/23 01:35:53;;;;;;;42.63;33.10;;;;;;;;;;4987715;28;20459;-71
2022/03/23 01:38:18;;;;;;;41.83;32.53;;;;;;;;;;4993257;28;20642;-69
2022/03/23 01:40:44;;;;;;;40.40;32.23;;;;;;;;;;5000450;28;20212;-70
2022/03/23 01:43:09;;;;;;;43.83;32.70;;;;;;;;;;4999999;28;20529;-69
2022/03/23 01:45:34;;;;;;;37.83;30.87;;;;;;;;;;5000192;28;20181;-70
2022/03/23 01:48:24;;;;;;;39.60;31.87;;;;;;;;;;4998976;28;20228;-70
2022/03/23 01:51:14;;;;;;;40.90;31.40;;;;;;;;;;5000732;28;20227;-70
2022/03/23 01:53:40;;;;;;;38.80;31.40;;;;;;;;;;4989014;28;20443;-70
2022/03/23 01:56:06;;;;;;;40.93;32.43;;;;;;;;;;5000883;28;20439;-69
2022/03/23 01:58:31;;;;;;;42.97;32.37;;;;;;;;;;5000658;28;20811;-71
2022/03/23 02:00:59;;;;;;;40.33;31.03;;;;;;;;;;4988367;28;20691;-70
2022/03/23 02:03:25;;;;;;;41.37;33.47;;;;;;;;;;4997696;28;22138;-69
2022/03/23 02:05:50;;;;;;;40.03;32.63;;;;;;;;;;4998603;28;20958;-71
2022/03/23 02:08:19;;;;;;;43.93;33.07;;;;;;;;;;4999796;28;20825;-70
2022/03/23 02:10:45;;;;;;;41.93;33.20;;;;;;;;;;4992078;28;20858;-69
2022/03/23 02:13:28;;;;;;;40.73;33.00;;;;;;;;;;4991999;28;20996;-70
2022/03/23 02:16:17;;;;;;;45.20;36.10;;;;;;;;;;4997129;28;20199;-70
2022/03/23 02:18:42;;;;;;;40.13;32.43;;;;;;;;;;5001880;28;20519;-70
2022/03/23 02:21:34;;;;;;;39.60;31.17;;;;;;;;;;5002955;28;20542;-71
2022/03/23 02:24:14;;;;;;;36.80;30.03;;;;;;;;;;4984742;28;20567;-70
2022/03/23 02:26:40;;;;;;;35.57;30.93;;;;;;;;;;4996857;28;20474;-70
2022/03/23 02:29:09;;;;;;;36.50;29.50;;;;;;;;;;4997803;28;21336;-70
2022/03/23 02:31:34;;;;;;;41.33;32.40;;;;;;;;;;4994446;28;20620;-70
2022/03/23 02:34:15;;;;;;;39.50;31.73;;;;;;;;;;5001174;28;20447;-70
2022/03/23 02:36:40;;;;;;;37.37;30.90;;;;;;;;;;5000325;28;20552;-70
2022/03/23 02:39:05;;;;;;;37.90;29.00;;;;;;;;;;4998184;28;20467;-71
2022/03/23 02:41:31;;;;;;;39.47;30.13;;;;;;;;;;4997153;28;20208;-70
2022/03/23 02:43:56;;;;;;;40.13;29.10;;;;;;;;;;4997258;28;20173;-70
2022/03/23 02:46:22;;;;;;;38.30;30.97;;;;;;;;;;4998840;28;20184;-69
2022/03/23 02:48:48;;;;;;;37.10;29.63;;;;;;;;;;4994678;28;20551;-70
2022/03/23 02:51:14;;;;;;;37.40;31.20;;;;;;;;;;4995539;28;20212;-70
2022/03/23 03:02:21;;;;;;;36.53;29.70;;;;;;;;;;5001061;28;20958;-71
2022/03/23 03:04:47;;;;;;;32.80;28.10;;;;;;;;;;4996536;28;20445;-70
2022/03/23 03:07:12;;;;;;;34.90;27.90;;;;;;;;;;5002303;28;20487;-69
2022/03/23 03:09:37;;;;;;;33.40;27.30;;;;;;;;;;5002073;28;20173;-70
2022/03/23 03:12:04;;;;;;;39.37;28.53;;;;;;;;;;4996820;28;20281;-70
2022/03/23 03:14:32;;;;;;;38.03;29.73;;;;;;;;;;4997198;28;20192;-69
2022/03/23 03:16:57;;;;;;;32.80;27.60;;;;;;;;;;4999730;28;20440;-70
2022/03/23 03:19:22;;;;;;;38.63;28.40;;;;;;;;;;4991051;28;20494;-69
2022/03/23 03:21:48;;;;;;;35.27;28.20;;;;;;;;;;4995608;28;20209;-70
2022/03/23 03:24:13;;;;;;;35.97;28.57;;;;;;;;;;4992661;28;20184;-70
2022/03/23 03:26:38;;;;;;;32.70;27.83;;;;;;;;;;4995490;28;20173;-70
2022/03/23 03:29:09;;;;;;;39.30;29.63;;;;;;;;;;4990420;28;20589;-69
2022/03/23 03:31:35;;;;;;;32.30;27.53;;;;;;;;;;4997677;28;20208;-70
2022/03/23 03:34:08;;;;;;;34.37;27.50;;;;;;;;;;4997071;28;20440;-71
2022/03/23 03:36:34;;;;;;;38.27;29.53;;;;;;;;;;4995057;28;20181;-71
2022/03/23 03:39:00;;;;;;;38.30;30.70;;;;;;;;;;4994727;28;20462;-70
2022/03/23 03:41:26;;;;;;;36.87;28.63;;;;;;;;;;5000207;28;20205;-70
2022/03/23 03:43:51;;;;;;;38.30;29.70;;;;;;;;;;4995378;28;20244;-69
2022/03/23 03:46:16;;;;;;;35.03;28.70;;;;;;;;;;4992108;28;20876;-70
2022/03/23 03:49:11;;;;;;;34.53;27.67;;;;;;;;;;5000504;28;20173;-70
2022/03/23 03:51:36;;;;;;;33.03;27.13;;;;;;;;;;4984519;28;23433;-69
2022/03/23 03:54:21;;;;;;;34.13;27.73;;;;;;;;;;4994297;28;22041;-71
2022/03/23 03:59:35;;;;;;;35.50;26.63;;;;;;;;;;4971321;28;20927;-70
2022/03/23 04:02:01;;;;;;;31.63;27.60;;;;;;;;;;5001485;28;20583;-70
2022/03/23 04:04:26;;;;;;;36.23;28.20;;;;;;;;;;4997491;28;20688;-71
2022/03/23 04:06:51;;;;;;;35.73;27.40;;;;;;;;;;4993455;28;20292;-71
2022/03/23 04:09:16;;;;;;;37.20;28.40;;;;;;;;;;4997405;28;20185;-71
2022/03/23 04:11:43;;;;;;;33.33;27.50;;;;;;;;;;4994408;28;20677;-71
2022/03/23 04:14:08;;;;;;;33.60;27.93;;;;;;;;;;4995557;28;20272;-70
2022/03/23 04:16:48;;;;;;;35.47;28.30;;;;;;;;;;5000564;28;20446;-70
2022/03/23 04:19:14;;;;;;;34.93;28.47;;;;;;;;;;4999441;28;20605;-70
2022/03/23 04:21:45;;;;;;;35.77;28.87;;;;;;;;;;4995283;28;20448;-69
2022/03/23 04:24:10;;;;;;;34.97;28.70;;;;;;;;;;4992641;28;20544;-70
2022/03/23 04:26:36;;;;;;;33.20;27.80;;;;;;;;;;4990669;28;20470;-71
2022/03/23 04:29:09;;;;;;;35.07;28.73;;;;;;;;;;4993354;28;20185;-70
2022/03/23 04:31:35;;;;;;;36.70;28.70;;;;;;;;;;4996674;28;20298;-70
2022/03/23 04:34:02;;;;;;;38.53;29.07;;;;;;;;;;4998137;28;20932;-71
2022/03/23 04:36:28;;;;;;;37.30;29.30;;;;;;;;;;4999054;28;20193;-70
2022/03/23 04:38:59;;;;;;;32.30;27.27;;;;;;;;;;4992849;28;21367;-70
2022/03/23 04:41:53;;;;;;;36.20;29.77;;;;;;;;;;4986801;28;20197;-69
2022/03/23 04:44:18;;;;;;;40.70;28.53;;;;;;;;;;4996223;28;20447;-71
2022/03/23 04:46:44;;;;;;;33.13;28.33;;;;;;;;;;5018011;28;20439;-70
2022/03/23 04:49:10;;;;;;;34.73;27.30;;;;;;;;;;5003676;28;20650;-70
2022/03/23 04:51:35;;;;;;;34.90;27.20;;;;;;;;;;5003980;28;20240;-71
2022/03/23 04:54:02;;;;;;;35.30;27.60;;;;;;;;;;4999288;28;20239;-69
2022/03/23 04:56:35;;;;;;;34.57;26.90;;;;;;;;;;4998052;28;20641;-70
2022/03/23 04:59:01;;;;;;;31.70;27.00;;;;;;;;;;5000145;28;20459;-71
2022/03/23 05:01:26;;;;;;;35.47;27.77;;;;;;;;;;4997331;28;21077;-70
2022/03/23 05:03:52;;;;;;;35.20;26.40;;;;;;;;;;5003852;28;20606;-70
2022/03/23 05:06:18;;;;;;;32.10;26.07;;;;;;;;;;5002153;28;20201;-70
2022/03/23 05:08:43;;;;;;;35.40;27.03;;;;;;;;;;5002314;28;20519;-70
2022/03/23 05:11:08;;;;;;;31.50;26.27;;;;;;;;;;5000317;28;20193;-71
2022/03/23 05:13:55;;;;;;;36.73;29.20;;;;;;;;;;5001449;28;20276;-70
2022/03/23 05:16:35;;;;;;;;;;;;;;;;;;;;;
2022/03/23 05:19:01;;;;;;;32.00;26.00;;;;;;;;;;4991444;28;20458;-69
2022/03/23 05:21:36;;;;;;;33.83;26.30;;;;;;;;;;4995049;28;20451;-70
2022/03/23 05:24:01;;;;;;;32.97;26.77;;;;;;;;;;4999511;28;20473;-70
2022/03/23 05:26:27;;;;;;;34.03;26.70;;;;;;;;;;5002865;28;20424;-70
2022/03/23 05:28:52;;;;;;;32.73;26.47;;;;;;;;;;5001325;28;20276;-70
2022/03/23 05:31:17;;;;;;;33.03;26.53;;;;;;;;;;4995957;28;20752;-70
2022/03/23 05:33:42;;;;;;;31.97;26.00;;;;;;;;;;4995705;28;20806;-70
2022/03/23 05:36:16;;;;;;;34.30;27.50;;;;;;;;;;5003759;28;20177;-70
2022/03/23 05:39:45;;;;;;;33.03;25.97;;;;;;;;;;5002974;28;20174;-70
2022/03/23 05:41:45;;;;;;;34.90;26.87;;;;;;;;;;4995875;28;20448;-71
2022/03/23 05:44:13;;;;;;;30.20;25.27;;;;;;;;;;5003473;28;20427;-70
2022/03/23 05:46:39;;;;;;;36.23;27.73;;;;;;;;;;4998470;28;20182;-71
2022/03/23 05:49:09;;;;;;;31.80;26.27;;;;;;;;;;4997597;28;20944;-70
2022/03/23 05:52:04;;;;;;;35.80;27.33;;;;;;;;;;4997178;28;20247;-70
2022/03/23 05:54:29;;;;;;;32.27;25.73;;;;;;;;;;4996410;28;20509;-70
2022/03/23 05:57:03;;;;;;;33.40;27.00;;;;;;;;;;5001624;28;20436;-70
2022/03/23 05:59:38;;;;;;;30.50;25.07;;;;;;;;;;4987409;28;20193;-70
2022/03/23 06:02:03;;;;;;;29.33;24.40;;;;;;;;;;4999806;28;20455;-70
2022/03/23 06:04:48;;;;;;;31.57;26.10;;;;;;;;;;4997664;28;20429;-70
2022/03/23 06:07:13;;;;;;;32.00;25.87;;;;;;;;;;4995241;28;20545;-70
2022/03/23 06:09:45;;;;;;;31.70;25.70;;;;;;;;;;4999899;28;20440;-71
2022/03/23 06:12:12;;;;;;;33.67;26.93;;;;;;;;;;4995506;28;20236;-71
2022/03/23 06:14:38;;;;;;;30.43;24.57;;;;;;;;;;4999813;28;20459;-71
2022/03/23 06:17:18;;;;;;;30.90;25.87;;;;;;;;;;4998348;28;20924;-70
2022/03/23 06:19:43;;;;;;;30.60;25.17;;;;;;;;;;5004236;28;20566;-71
2022/03/23 06:22:09;;;;;;;31.97;26.90;;;;;;;;;;5003982;28;21061;-71
2022/03/23 06:24:34;;;;;;;35.50;26.60;;;;;;;;;;5002269;28;20193;-70
2022/03/23 06:27:00;;;;;;;34.33;27.23;;;;;;;;;;5003016;28;20180;-70
2022/03/23 06:29:25;;;;;;;30.57;25.40;;;;;;;;;;4990737;28;20185;-70
2022/03/23 06:31:51;;;;;;;30.03;24.37;;;;;;;;;;5000816;28;20209;-71
2022/03/23 06:34:16;;;;;;;30.03;24.90;;;;;;;;;;4999308;28;20547;-72
2022/03/23 06:36:42;;;;;;;31.13;25.20;;;;;;;;;;5003221;28;20264;-70
2022/03/23 06:39:07;;;;;;;30.50;24.90;;;;;;;;;;5004238;28;20557;-71
2022/03/23 06:41:37;;;;;;;30.73;25.30;;;;;;;;;;5002590;28;20487;-71
2022/03/23 06:44:02;;;;;;;30.97;25.83;;;;;;;;;;4999395;28;20269;-71
2022/03/23 06:46:33;;;;;;;30.97;24.90;;;;;;;;;;5003065;28;20532;-71
2022/03/23 06:49:07;;;;;;;29.50;24.33;;;;;;;;;;5004388;28;20224;-71
2022/03/23 06:51:32;;;;;;;27.03;22.77;;;;;;;;;;5012612;23;21445;-70
2022/03/23 06:54:04;;;;;;;31.23;24.47;;;;;;;;;;5003733;28;20479;-70
2022/03/23 06:56:29;;;;;;;30.03;24.13;;;;;;;;;;5000359;28;20186;-69
2022/03/23 06:59:06;;;;;;;26.17;21.77;;;;;;;;;;4994290;28;20451;-69
2022/03/23 07:01:31;;;;;;;29.70;23.23;;;;;;;;;;5000134;28;20272;-69
2022/03/23 07:03:57;;;;;;;28.80;23.50;;;;;;;;;;5001157;28;20432;-70
2022/03/23 07:06:25;;;;;;;25.57;22.63;;;;;;;;;;5001603;28;20193;-70
2022/03/23 07:11:40;;;;;;;29.20;22.97;;;;;;;;;;5001779;28;20546;-70
2022/03/23 07:14:18;;;;;;;25.03;21.10;;;;;;;;;;5003707;28;21140;-69
2022/03/23 07:16:44;;;;;;;31.40;21.93;;;;;;;;;;4996900;28;20431;-71
2022/03/23 07:19:22;;;;;;;28.93;21.60;;;;;;;;;;5000185;28;20485;-70
2022/03/23 07:21:48;;;;;;;24.37;20.03;;;;;;;;;;5001325;28;20204;-70
2022/03/23 07:24:13;;;;;;;24.37;19.80;;;;;;;;;;5000707;28;20425;-69
2022/03/23 07:26:39;;;;;;;23.37;19.30;;;;;;;;;;5001904;28;20185;-69
2022/03/23 07:29:05;;;;;;;23.80;20.43;;;;;;;;;;5004790;28;20212;-69
2022/03/23 07:31:30;;;;;;;22.37;19.23;;;;;;;;;;5002813;28;20208;-69
2022/03/23 07:33:57;;;;;;;22.90;19.10;;;;;;;;;;5000224;28;20439;-69
2022/03/23 07:36:22;;;;;;;25.90;20.17;;;;;;;;;;5005027;28;20196;-69
2022/03/23 07:38:48;;;;;;;21.50;18.70;;;;;;;;;;5004632;28;20432;-69
2022/03/23 07:41:13;;;;;;;22.23;18.80;;;;;;;;;;5005246;28;20208;-70
2022/03/23 07:44:18;;;;;;;;;;;;;;;;;;;;;
2022/03/23 07:46:45;;;;;;;24.67;21.07;;;;;;;;;;4997879;28;20180;-69
2022/03/23 07:49:10;;;;;;;22.63;18.53;;;;;;;;;;5000920;28;20443;-69
2022/03/23 07:51:35;;;;;;;23.23;18.90;;;;;;;;;;4991152;28;20468;-70
2022/03/23 07:54:01;;;;;;;23.50;18.23;;;;;;;;;;5015306;28;20227;-69
2022/03/23 07:56:26;;;;;;;23.97;18.70;;;;;;;;;;4999542;28;20184;-69
2022/03/23 07:59:00;;;;;;;22.70;17.23;;;;;;;;;;4998966;28;20637;-68
2022/03/23 08:01:25;;;;;;;20.03;17.87;;;;;;;;;;5016722;28;21160;-69
2022/03/23 08:04:00;;;;;;;20.97;17.10;;;;;;;;;;5019212;28;20427;-68
2022/03/23 08:06:26;;;;;;;20.73;17.07;;;;;;;;;;5004025;28;20180;-69
2022/03/23 08:08:52;;;;;;;21.37;16.30;;;;;;;;;;5004411;28;20440;-69
2022/03/23 08:11:45;;;;;;;21.07;16.57;;;;;;;;;;5002150;28;20205;-69
2022/03/23 08:14:10;;;;;;;24.53;16.00;;;;;;;;;;5004931;28;20189;-69
2022/03/23 08:16:39;;;;;;;17.40;14.77;;;;;;;;;;5006302;28;20443;-68
2022/03/23 08:19:22;;;;;;;16.30;14.70;;;;;;;;;;5012203;28;20184;-69
2022/03/23 08:21:47;;;;;;;17.47;15.57;;;;;;;;;;5008990;28;20513;-69
2022/03/23 08:27:01;;;;;;;16.60;13.70;;;;;;;;;;4995133;28;20693;-69
2022/03/23 08:29:30;;;;;;;19.00;16.43;;;;;;;;;;5005630;28;20439;-69
2022/03/23 08:32:04;;;;;;;16.53;14.40;;;;;;;;;;5002040;28;20232;-69
2022/03/23 08:34:35;;;;;;;17.50;14.57;;;;;;;;;;4998908;28;20442;-68
2022/03/23 08:37:01;;;;;;;17.37;14.90;;;;;;;;;;5008589;28;20444;-68
2022/03/23 08:39:32;;;;;;;16.53;14.50;;;;;;;;;;5008191;28;20463;-67
2022/03/23 08:42:00;;;;;;;16.13;13.63;;;;;;;;;;5010825;28;20204;-68
2022/03/23 08:44:25;;;;;;;14.87;13.27;;;;;;;;;;5024186;28;20514;-68
2022/03/23 08:46:53;;;;;;;15.77;13.90;;;;;;;;;;5006691;28;20530;-69
2022/03/23 08:49:18;;;;;;;16.50;13.60;;;;;;;;;;5004834;28;20312;-68
2022/03/23 08:51:43;;;;;;;18.13;14.57;;;;;;;;;;5004824;28;20960;-68
2022/03/23 08:54:08;;;;;;;15.10;12.47;;;;;;;;;;5001190;28;20663;-69
2022/03/23 08:56:33;;;;;;;16.77;13.80;;;;;;;;;;5003280;28;20644;-68
2022/03/23 08:58:59;;;;;;;15.33;13.70;;;;;;;;;;5006663;28;20688;-68
2022/03/23 09:01:32;;;;;;;15.67;13.53;;;;;;;;;;4996964;28;21103;-68
2022/03/23 09:04:03;;;;;;;18.20;15.80;;;;;;;;;;5016051;28;21052;-68
2022/03/23 09:06:31;;;;;;;22.60;17.53;;;;;;;;;;4998842;28;20436;-70
2022/03/23 09:09:23;;;;;;;27.83;19.40;;;;;;;;;;5002271;28;20541;-68
2022/03/23 09:11:45;;;;;;;22.30;15.43;;;;;;;;;;5001762;28;20892;-69
2022/03/23 09:14:11;;;;;;;16.97;15.13;;;;;;;;;;5000760;28;20448;-69
2022/03/23 09:16:37;;;;;;;16.93;13.97;;;;;;;;;;5005893;28;20272;-71
2022/03/23 09:19:02;;;;;;;17.47;14.50;;;;;;;;;;5006533;28;20511;-69
2022/03/23 09:21:28;;;;;;;16.00;13.43;;;;;;;;;;5007646;28;20232;-70
2022/03/23 09:23:53;;;;;;;15.60;13.93;;;;;;;;;;5005495;28;20236;-70
2022/03/23 09:26:18;;;;;;;14.83;13.03;;;;;;;;;;5003390;28;20203;-70
2022/03/23 09:28:44;;;;;;;16.03;12.87;;;;;;;;;;5004126;28;20235;-69
2022/03/23 09:31:09;;;;;;;14.40;12.80;;;;;;;;;;5001365;28;20683;-69
2022/03/23 09:33:34;;;;;;;14.10;12.60;;;;;;;;;;4999849;28;20185;-69
2022/03/23 09:36:03;;;;;;;16.50;14.07;;;;;;;;;;5001748;28;20177;-69
2022/03/23 09:38:29;;;;;;;17.07;14.90;;;;;;;;;;5003502;28;20554;-69
2022/03/23 09:40:55;;;;;;;18.90;13.30;;;;;;;;;;5002776;28;20562;-69
2022/03/23 09:43:22;;;;;;;15.20;12.60;;;;;;;;;;5007020;28;20503;-69
2022/03/23 09:45:48;;;;;;;17.43;14.40;;;;;;;;;;5002867;28;20177;-69
2022/03/23 09:48:34;;;;;;;17.93;12.97;;;;;;;;;;5005077;28;20487;-70
2022/03/23 09:51:17;;;;;;;;;;;;;;;;;;;;;
2022/03/23 09:53:46;;;;;;;17.13;13.00;;;;;;;;;;5004133;28;20451;-68
2022/03/23 09:56:14;;;;;;;13.40;11.40;;;;;;;;;;5006190;28;20428;-69
2022/03/23 09:58:43;;;;;;;14.50;11.93;;;;;;;;;;5004156;28;20432;-69
2022/03/23 10:01:26;;;;;;;18.73;11.93;;;;;;;;;;5006695;28;20464;-69
2022/03/23 10:04:23;;;;;;;;;;;;;;;;;;;;;
2022/03/23 10:06:54;;;;;;;13.53;11.00;;;;;;;;;;5006262;28;20427;-70
2022/03/23 10:09:29;;;;;;;17.20;12.10;;;;;;;;;;5017778;28;20524;-70
2022/03/23 10:11:54;;;;;;;14.50;12.00;;;;;;;;;;5001682;28;20932;-71
2022/03/23 10:14:38;;;;;;;14.93;12.10;;;;;;;;;;5003969;28;20443;-69
2022/03/23 10:17:22;;;;;;;12.50;11.03;;;;;;;;;;5005488;28;20637;-68
2022/03/23 10:19:47;;;;;;;12.47;11.03;;;;;;;;;;5022706;28;20471;-69
2022/03/23 10:22:14;;;;;;;13.70;11.20;;;;;;;;;;5011155;28;20463;-71
2022/03/23 10:24:40;;;;;;;12.87;11.47;;;;;;;;;;5001303;28;20408;-69
2022/03/23 10:27:17;;;;;;;13.73;10.07;;;;;;;;;;5003284;28;20440;-70
2022/03/23 10:29:47;;;;;;;11.70;10.27;;;;;;;;;;5005336;28;20511;-72
2022/03/23 10:32:13;;;;;;;32.33;14.53;;;;;;;;;;4997855;28;20456;-71
2022/03/23 10:34:40;;;;;;;15.13;11.77;;;;;;;;;;5003797;28;20436;-70
2022/03/23 10:37:09;;;;;;;19.30;12.40;;;;;;;;;;5003419;28;20498;-71
2022/03/23 10:39:34;;;;;;;12.87;11.27;;;;;;;;;;5005190;28;20467;-71
2022/03/23 10:42:18;;;;;;;13.00;10.50;;;;;;;;;;5002439;28;20835;-71
2022/03/23 10:45:02;;;;;;;17.20;12.73;;;;;;;;;;5004872;28;20817;-71
2022/03/23 10:47:31;;;;;;;14.77;11.87;;;;;;;;;;5002852;28;20451;-69
2022/03/23 10:49:57;;;;;;;12.73;10.20;;;;;;;;;;4999990;28;20447;-70
2022/03/23 10:52:24;;;;;;;13.83;10.50;;;;;;;;;;5002949;28;20471;-69
2022/03/23 10:54:58;;;;;;;12.30;10.70;;;;;;;;;;4997710;28;20703;-69
2022/03/23 10:57:43;;;;;;;11.83;10.20;;;;;;;;;;4998921;28;20471;-70
2022/03/23 11:00:32;;;;;;;10.93;9.50;;;;;;;;;;4997327;28;20847;-69
2022/03/23 11:03:01;;;;;;;12.40;9.13;;;;;;;;;;4989519;28;20436;-70
2022/03/23 11:05:33;;;;;;;10.53;9.43;;;;;;;;;;5002168;28;20491;-72
2022/03/23 11:08:24;;;;;;;11.27;9.07;;;;;;;;;;5004244;28;20432;-69
2022/03/23 11:19:54;;;;;;;10.10;8.63;;;;;;;;;;4994272;28;20459;-70
2022/03/23 11:22:19;;;;;;;8.67;7.53;;;;;;;;;;5002082;28;20451;-70
2022/03/23 11:24:46;;;;;;;9.03;8.13;;;;;;;;;;5004401;28;20963;-70
2022/03/23 11:27:19;;;;;;;10.57;7.77;;;;;;;;;;5003454;28;20181;-70
2022/03/23 11:29:46;;;;;;;10.20;8.97;;;;;;;;;;5003516;28;20905;-70
2022/03/23 11:32:12;;;;;;;9.77;7.90;;;;;;;;;;5002219;28;20522;-70
2022/03/23 11:34:43;;;;;;;8.70;7.10;;;;;;;;;;5003602;28;20451;-70
2022/03/23 11:37:08;;;;;;;11.67;7.40;;;;;;;;;;5001810;28;20438;-70
2022/03/23 11:39:37;;;;;;;9.80;8.60;;;;;;;;;;4997867;28;20471;-70
2022/03/23 11:42:04;;;;;;;10.30;7.50;;;;;;;;;;4997031;28;20202;-70
2022/03/23 11:44:29;;;;;;;9.47;7.90;;;;;;;;;;5002272;28;20429;-70
2022/03/23 11:47:07;;;;;;;8.50;7.60;;;;;;;;;;5003371;28;20486;-70
2022/03/23 11:49:35;;;;;;;11.33;8.40;;;;;;;;;;5004975;28;20193;-70
2022/03/23 11:52:18;;;;;;;8.90;7.20;;;;;;;;;;5006992;28;20571;-70
2022/03/23 11:57:54;;;;;;;8.77;7.87;;;;;;;;;;5009304;28;20940;-70
2022/03/23 12:00:24;;;;;;;8.80;7.90;;;;;;;;;;4994746;28;20502;-70
2022/03/23 12:03:02;;;;;;;8.00;7.20;;;;;;;;;;5008636;28;21418;-70
2022/03/23 12:05:31;;;;;;;9.17;8.37;;;;;;;;;;5007928;28;20431;-70
2022/03/23 12:07:57;;;;;;;12.13;9.27;;;;;;;;;;4979913;28;20983;-69
2022/03/23 12:10:31;;;;;;;8.93;8.03;;;;;;;;;;5000445;28;20435;-70
2022/03/23 12:13:15;;;;;;;8.50;7.60;;;;;;;;;;4995981;28;21536;-70
2022/03/23 12:15:59;;;;;;;8.27;6.90;;;;;;;;;;5004758;28;20435;-71
2022/03/23 12:18:43;;;;;;;7.27;6.27;;;;;;;;;;5007359;28;20435;-70
2022/03/23 12:21:11;;;;;;;7.23;6.47;;;;;;;;;;5002829;28;21015;-71
2022/03/23 12:23:54;;;;;;;13.33;7.30;;;;;;;;;;5000376;28;20948;-70
2022/03/23 12:26:46;;;;;;;7.67;6.97;;;;;;;;;;5006384;28;20526;-70
2022/03/23 12:29:23;;;;;;;9.33;7.33;;;;;;;;;;5016167;28;20451;-69
2022/03/23 12:31:48;;;;;;;9.03;7.80;;;;;;;;;;5005636;28;20466;-71
2022/03/23 12:34:23;;;;;;;11.03;7.83;;;;;;;;;;5007607;28;20424;-70
2022/03/23 12:37:01;;;;;;;9.43;7.67;;;;;;;;;;5006626;28;20185;-71
2022/03/23 12:39:29;;;;;;;12.90;7.40;;;;;;;;;;4999036;28;20593;-71
2022/03/23 12:41:58;;;;;;;9.60;7.40;;;;;;;;;;5004358;28;20463;-71
2022/03/23 12:44:28;;;;;;;9.07;7.73;;;;;;;;;;5003766;28;20436;-68
2022/03/23 12:46:54;;;;;;;8.47;7.50;;;;;;;;;;5003609;28;20472;-69
2022/03/23 12:57:50;;;;;;;10.00;7.30;;;;;;;;;;5004436;28;20813;-67
2022/03/23 13:00:25;;;;;;;33.23;9.60;;;;;;;;;;5006357;28;20514;-65
2022/03/23 13:03:11;;;;;;;18.97;7.67;;;;;;;;;;5002193;28;20474;-67
2022/03/23 13:05:37;;;;;;;12.50;7.30;;;;;;;;;;4970573;28;20916;-68
2022/03/23 13:08:21;;;;;;;8.67;6.20;;;;;;;;;;5004997;28;20558;-69
2022/03/23 13:11:02;;;;;;;9.70;6.40;;;;;;;;;;5004110;28;20437;-68
2022/03/23 13:13:32;;;;;;;5.87;5.30;;;;;;;;;;5003204;28;20428;-68
2022/03/23 13:15:58;;;;;;;9.07;5.37;;;;;;;;;;5006583;28;20520;-68
2022/03/23 13:18:23;;;;;;;10.03;6.37;;;;;;;;;;5005620;28;20526;-67
2022/03/23 13:20:50;;;;;;;6.77;5.40;;;;;;;;;;5005330;28;20217;-66
2022/03/23 13:23:17;;;;;;;8.20;5.97;;;;;;;;;;5004338;28;20173;-66
2022/03/23 13:25:52;;;;;;;12.37;5.87;;;;;;;;;;5006669;28;20439;-67
2022/03/23 13:28:22;;;;;;;7.17;5.40;;;;;;;;;;5002008;28;20526;-66
2022/03/23 13:30:48;;;;;;;7.17;5.63;;;;;;;;;;5003927;28;20932;-68
2022/03/23 13:33:17;;;;;;;8.50;6.03;;;;;;;;;;5003111;28;20442;-67
2022/03/23 13:35:45;;;;;;;8.30;5.30;;;;;;;;;;5002778;28;20177;-67
2022/03/23 13:38:11;;;;;;;7.73;4.80;;;;;;;;;;5005919;28;20527;-67
2022/03/23 13:43:27;;;;;;;7.97;4.70;;;;;;;;;;4998953;28;20177;-67
2022/03/23 13:45:53;;;;;;;9.30;4.83;;;;;;;;;;5003420;28;20432;-68
2022/03/23 13:48:21;;;;;;;6.87;4.50;;;;;;;;;;5005509;28;20432;-68
2022/03/23 13:50:56;;;;;;;7.03;4.63;;;;;;;;;;5002175;28;20829;-68
2022/03/23 13:53:22;;;;;;;6.87;4.57;;;;;;;;;;5001683;28;20436;-67
2022/03/23 13:55:48;;;;;;;8.87;5.27;;;;;;;;;;5005352;28;20448;-68
2022/03/23 13:58:16;;;;;;;8.50;5.47;;;;;;;;;;5004166;28;20185;-68
2022/03/23 14:00:42;;;;;;;8.80;5.40;;;;;;;;;;5006467;28;20466;-68
2022/03/23 14:03:07;;;;;;;10.13;5.53;;;;;;;;;;5002562;28;20444;-68
2022/03/23 14:05:32;;;;;;;10.83;5.90;;;;;;;;;;4998567;28;20180;-67
2022/03/23 14:07:59;;;;;;;6.70;5.50;;;;;;;;;;5004529;28;20173;-67
2022/03/23 14:10:37;;;;;;;9.77;5.07;;;;;;;;;;5002008;28;20189;-67
2022/03/23 14:13:09;;;;;;;13.07;5.90;;;;;;;;;;5005437;28;20448;-68
2022/03/23 14:15:54;;;;;;;8.00;5.00;;;;;;;;;;5018002;28;21040;-68
2022/03/23 14:18:23;;;;;;;7.57;5.17;;;;;;;;;;5005354;28;20429;-68
2022/03/23 14:20:52;;;;;;;9.43;6.17;;;;;;;;;;5003330;28;20494;-68
2022/03/23 14:23:22;;;;;;;8.00;5.93;;;;;;;;;;5000910;28;20493;-67
2022/03/23 14:25:51;;;;;;;8.83;6.07;;;;;;;;;;5002498;28;20440;-67
2022/03/23 14:28:20;;;;;;;9.57;6.07;;;;;;;;;;5004525;28;20483;-66
2022/03/23 14:30:47;;;;;;;8.90;6.30;;;;;;;;;;5002652;28;20508;-67
2022/03/23 14:33:17;;;;;;;10.23;7.57;;;;;;;;;;5000963;28;20424;-69
2022/03/23 14:35:43;;;;;;;9.87;6.70;;;;;;;;;;5005565;28;20530;-69
2022/03/23 14:38:13;;;;;;;15.10;6.90;;;;;;;;;;5002008;28;20490;-68
2022/03/23 14:41:10;;;;;;;16.30;7.60;;;;;;;;;;4998968;28;20551;-67
2022/03/23 14:43:36;;;;;;;10.87;7.13;;;;;;;;;;5001802;28;22195;-68
2022/03/23 14:46:18;;;;;;;10.67;7.10;;;;;;;;;;5001438;28;20428;-68
2022/03/23 14:48:44;;;;;;;16.03;7.73;;;;;;;;;;5000917;28;20947;-69
2022/03/23 14:51:11;;;;;;;7.20;5.60;;;;;;;;;;5001787;28;20451;-68
2022/03/23 14:53:36;;;;;;;9.03;7.23;;;;;;;;;;4998815;28;20212;-68
2022/03/23 14:56:02;;;;;;;10.93;6.57;;;;;;;;;;5000342;28;20476;-69
2022/03/23 14:58:32;;;;;;;13.30;6.40;;;;;;;;;;5002049;28;20236;-70
2022/03/23 15:00:59;;;;;;;11.00;7.30;;;;;;;;;;4997820;28;20829;-68
2022/03/23 15:03:28;;;;;;;13.77;6.83;;;;;;;;;;4999173;28;22481;-68
2022/03/23 15:14:05;;;;;;;13.00;7.77;;;;;;;;;;5000203;28;20467;-69
2022/03/23 15:16:31;;;;;;;13.83;6.90;;;;;;;;;;4996740;28;20809;-69
2022/03/23 15:18:56;;;;;;;13.60;7.07;;;;;;;;;;4997355;28;20177;-69
2022/03/23 15:21:23;;;;;;;13.57;6.67;;;;;;;;;;4998297;28;20217;-68
2022/03/23 15:23:48;;;;;;;10.23;7.17;;;;;;;;;;4996172;28;20237;-68
2022/03/23 15:26:14;;;;;;;9.70;6.80;;;;;;;;;;4998259;28;20432;-69
2022/03/23 15:28:39;;;;;;;8.33;6.43;;;;;;;;;;5001724;28;20267;-69
2022/03/23 15:31:04;;;;;;;7.50;6.30;;;;;;;;;;4999582;28;20213;-71
2022/03/23 15:33:30;;;;;;;9.70;6.23;;;;;;;;;;4999383;28;20239;-69
2022/03/23 15:35:55;;;;;;;9.73;6.13;;;;;;;;;;4998600;28;20184;-69